Terminal Aerodrome Forecast
Issued by NWS Cleveland, OH

Home | Current Version | Previous Version | Graphics & Text | Print | Product List | Glossary On
Versions: 1 2 3 4 5 6 7 8 9 10 11 12 13 14 15 16 17 18 19 20 21 22 23 24 25 26 27
000
FTUS41 KCLE 211900 AAA
TAFMFD
TAF AMD
KMFD 211944Z 2120/2218 22008KT 6SM -SHRA BR BKN040 BKN120
      TEMPO 2120/2124 5SM -TSRA BR BKN018CB BKN045
     FM220000 23007KT 6SM BR VCSH BKN040 BKN100
     FM220200 23005KT 5SM BR VCTS BKN035CB OVC080
      TEMPO 2210/2212 1SM TSRA BR BKN015CB OVC025
     FM221200 24007KT 6SM BR VCSH BKN030=

USA.gov is the U.S. government's official web portal to all federal, state and local government web resources and services.